createdAt,value
2016-10-09T00:00:28.725Z,0
2016-10-09T00:01:27.799Z,0
2016-10-09T00:02:28.637Z,0
2016-10-09T00:03:28.303Z,0
2016-10-09T00:04:28.575Z,0
2016-10-09T00:05:28.536Z,0
2016-10-09T00:06:28.197Z,0
2016-10-09T00:07:28.152Z,0
2016-10-09T00:08:28.420Z,0
2016-10-09T00:09:28.072Z,0
2016-10-09T00:10:28.355Z,0
2016-10-09T00:11:28.300Z,0
2016-10-09T00:12:28.262Z,0
2016-10-09T00:13:28.223Z,0
2016-10-09T00:14:27.875Z,0
2016-10-09T00:15:28.140Z,0
2016-10-09T00:16:27.804Z,0
2016-10-09T00:17:28.077Z,0
2016-10-09T00:18:27.727Z,0
2016-10-09T00:19:27.692Z,0
2016-10-09T00:20:27.349Z,0
2016-10-09T00:21:27.017Z,0
2016-10-09T00:22:27.872Z,0
2016-10-09T00:23:27.535Z,0
2016-10-09T00:24:27.493Z,0
2016-10-09T00:25:27.753Z,0
2016-10-09T00:26:27.124Z,0
2016-10-09T00:27:27.677Z,0
2016-10-09T00:28:27.037Z,0
2016-10-09T00:29:27.298Z,0
2016-10-09T00:30:27.257Z,0
2016-10-09T00:31:27.531Z,0
2016-10-09T00:32:27.488Z,0
2016-10-09T00:33:27.147Z,0
2016-10-09T00:34:26.806Z,0
2016-10-09T00:35:26.767Z,0
2016-10-09T00:36:27.331Z,0
2016-10-09T00:37:27.295Z,0
2016-10-09T00:38:27.252Z,0
2016-10-09T00:39:27.215Z,0
2016-10-09T00:40:26.877Z,0
2016-10-09T00:41:26.842Z,0
2016-10-09T00:42:26.797Z,0
2016-10-09T00:43:26.760Z,0
2016-10-09T00:44:27.023Z,0
2016-10-09T00:45:26.687Z,0
2016-10-09T00:46:26.643Z,0
2016-10-09T00:47:26.004Z,0
2016-10-09T00:48:26.565Z,0
2016-10-09T00:49:26.529Z,0
2016-10-09T00:50:26.806Z,0
2016-10-09T00:51:26.447Z,0
2016-10-09T00:52:26.715Z,0
2016-10-09T00:53:26.672Z,0
2016-10-09T00:54:26.337Z,0
2016-10-09T00:55:26.607Z,0
2016-10-09T00:56:25.956Z,0
2016-10-09T00:57:26.218Z,0
2016-10-09T00:58:25.887Z,0
2016-10-09T00:59:26.445Z,0
2016-10-09T01:00:25.801Z,0
2016-10-09T01:01:26.362Z,0
2016-10-09T01:02:25.725Z,0
2016-10-09T01:03:25.993Z,0
2016-10-09T01:04:25.948Z,0
2016-10-09T01:05:26.221Z,0
2016-10-09T01:06:25.589Z,0
2016-10-09T01:07:25.834Z,0
2016-10-09T01:08:26.095Z,0
2016-10-09T01:09:25.450Z,0
2016-10-09T01:10:25.718Z,0
2016-10-09T01:11:25.675Z,0
2016-10-09T01:12:25.939Z,0
2016-10-09T01:13:25.599Z,0
2016-10-09T01:14:25.861Z,0
2016-10-09T01:15:25.822Z,0
2016-10-09T01:16:25.481Z,0
2016-10-09T01:17:25.446Z,0
2016-10-09T01:18:25.717Z,0
2016-10-09T01:19:25.381Z,0
2016-10-09T01:20:25.328Z,0
2016-10-09T01:21:25.597Z,0
2016-10-09T01:22:25.552Z,0
2016-10-09T01:23:25.217Z,0
2016-10-09T01:24:25.473Z,0
2016-10-09T01:25:25.140Z,0
2016-10-09T01:26:24.793Z,0
2016-10-09T01:27:25.059Z,0
2016-10-09T01:28:24.133Z,0
2016-10-09T01:29:24.673Z,0
2016-10-09T01:30:24.641Z,0
2016-10-09T01:31:24.902Z,0
2016-10-09T01:32:25.175Z,0
2016-10-09T01:33:25.137Z,0
2016-10-09T01:34:24.787Z,0
2016-10-09T01:35:25.049Z,0
2016-10-09T01:36:24.407Z,0
2016-10-09T01:37:24.366Z,0
2016-10-09T01:38:24.936Z,0
2016-10-09T01:39:24.900Z,0
2016-10-09T01:40:24.856Z,0
2016-10-09T01:41:24.819Z,0
2016-10-09T01:42:24.780Z,0
2016-10-09T01:43:24.138Z,0
2016-10-09T01:44:24.702Z,0
2016-10-09T01:45:24.659Z,0
2016-10-09T01:46:24.329Z,0
2016-10-09T01:47:24.593Z,0
2016-10-09T01:48:24.554Z,0
2016-10-09T01:49:24.521Z,0
2016-10-09T01:50:24.171Z,0
2016-10-09T01:51:24.133Z,0
2016-10-09T01:52:24.390Z,0
2016-10-09T01:53:24.355Z,0
2016-10-09T01:54:24.031Z,0
2016-10-09T01:55:23.979Z,0
2016-10-09T01:56:23.944Z,0
2016-10-09T01:57:24.196Z,0
2016-10-09T01:58:23.870Z,0
2016-10-09T01:59:23.529Z,0
2016-10-09T02:00:24.078Z,0
2016-10-09T02:01:23.768Z,0
2016-10-09T02:02:24.014Z,0
2016-10-09T02:03:23.973Z,0
2016-10-09T02:04:23.922Z,0
2016-10-09T02:05:23.603Z,0
2016-10-09T02:06:23.547Z,0
2016-10-09T02:07:23.517Z,0
2016-10-09T02:08:23.771Z,0
2016-10-09T02:09:23.734Z,0
2016-10-09T02:10:23.412Z,0
2016-10-09T02:11:23.054Z,0
2016-10-09T02:12:23.615Z,0
2016-10-09T02:13:23.280Z,0
2016-10-09T02:14:23.540Z,0
2016-10-09T02:15:22.593Z,0
2016-10-09T02:16:23.461Z,0
2016-10-09T02:17:23.422Z,0
2016-10-09T02:18:23.101Z,0
2016-10-09T02:19:23.348Z,0
2016-10-09T02:20:23.310Z,0
2016-10-09T02:21:22.987Z,0
2016-10-09T02:22:23.233Z,0
2016-10-09T02:23:23.185Z,0
2016-10-09T02:24:22.852Z,0
2016-10-09T02:25:23.117Z,0
2016-10-09T02:26:22.768Z,0
2016-10-09T02:27:23.035Z,0
2016-10-09T02:28:23.003Z,0
2016-10-09T02:29:22.650Z,0
2016-10-09T02:30:22.917Z,0
2016-10-09T02:31:22.575Z,0
2016-10-09T02:32:22.538Z,0
2016-10-09T02:33:22.803Z,0
2016-10-09T02:34:22.770Z,0
2016-10-09T02:35:22.424Z,0
2016-10-09T02:36:22.386Z,0
2016-10-09T02:37:22.640Z,0
2016-10-09T02:38:22.614Z,0
2016-10-09T02:39:22.265Z,0
2016-10-09T02:40:22.230Z,0
2016-10-09T02:41:22.187Z,0
2016-10-09T02:42:22.154Z,0
2016-10-09T02:43:21.807Z,0
2016-10-09T02:44:22.373Z,0
2016-10-09T02:45:22.334Z,0
2016-10-09T02:46:21.992Z,0
2016-10-09T02:47:21.350Z,0
2016-10-09T02:48:21.624Z,0
2016-10-09T02:49:22.175Z,0
2016-10-09T02:50:21.842Z,0
2016-10-09T02:51:22.127Z,0
2016-10-09T02:52:22.065Z,0
2016-10-09T02:53:22.049Z,0
2016-10-09T02:54:21.983Z,0
2016-10-09T02:55:21.949Z,0
2016-10-09T02:56:21.912Z,0
2016-10-09T02:57:21.884Z,0
2016-10-09T02:58:21.527Z,0
2016-10-09T02:59:21.798Z,0
2016-10-09T03:00:21.748Z,0
2016-10-09T03:01:21.106Z,0
2016-10-09T03:02:21.372Z,0
2016-10-09T03:03:21.658Z,0
2016-10-09T03:04:21.592Z,0
2016-10-09T03:05:21.254Z,0
2016-10-09T03:06:21.515Z,0
2016-10-09T03:07:20.886Z,0
2016-10-09T03:08:21.441Z,0
2016-10-09T03:09:21.400Z,0
2016-10-09T03:10:21.061Z,0
2016-10-09T03:11:21.022Z,0
2016-10-09T03:12:21.286Z,0
2016-10-09T03:13:20.649Z,0
2016-10-09T03:14:21.204Z,0
2016-10-09T03:15:20.868Z,0
2016-10-09T03:16:21.145Z,0
2016-10-09T03:17:21.081Z,0
2016-10-09T03:18:21.051Z,0
2016-10-09T03:19:21.008Z,0
2016-10-09T03:20:20.968Z,0
2016-10-09T03:21:20.632Z,0
2016-10-09T03:22:20.586Z,0
2016-10-09T03:23:20.268Z,0
2016-10-09T03:24:20.215Z,0
2016-10-09T03:25:20.778Z,0
2016-10-09T03:26:20.447Z,0
2016-10-09T03:27:20.701Z,0
2016-10-09T03:28:20.053Z,0
2016-10-09T03:29:20.630Z,0
2016-10-09T03:30:20.278Z,0
2016-10-09T03:31:20.551Z,0
2016-10-09T03:32:20.509Z,0
2016-10-09T03:33:19.870Z,0
2016-10-09T03:34:20.123Z,0
2016-10-09T03:35:20.089Z,0
2016-10-09T03:36:20.354Z,0
2016-10-09T03:37:20.308Z,0
2016-10-09T03:38:19.973Z,0
2016-10-09T03:39:19.930Z,0
2016-10-09T03:40:20.200Z,0
2016-10-09T03:41:20.155Z,0
2016-10-09T03:42:20.114Z,0
2016-10-09T03:43:19.769Z,0
2016-10-09T03:44:20.042Z,0
2016-10-09T03:45:19.997Z,0
2016-10-09T03:46:19.657Z,0
2016-10-09T03:47:19.620Z,0
2016-10-09T03:48:19.881Z,0
2016-10-09T03:49:19.850Z,0
2016-10-09T03:50:19.506Z,0
2016-10-09T03:51:19.766Z,0
2016-10-09T03:52:19.730Z,0
2016-10-09T03:53:19.686Z,0
2016-10-09T03:54:19.647Z,0
2016-10-09T03:55:19.320Z,0
2016-10-09T03:56:18.970Z,0
2016-10-09T03:57:19.532Z,0
2016-10-09T03:58:19.492Z,0
2016-10-09T03:59:19.465Z,0
2016-10-09T04:00:19.119Z,0
2016-10-09T04:01:19.370Z,0
2016-10-09T04:02:19.338Z,0
2016-10-09T04:03:18.997Z,0
2016-10-09T04:04:19.260Z,0
2016-10-09T04:05:18.913Z,0
2016-10-09T04:06:19.183Z,0
2016-10-09T04:07:19.141Z,0
2016-10-09T04:08:19.116Z,0
2016-10-09T04:09:18.769Z,0
2016-10-09T04:10:19.027Z,0
2016-10-09T04:11:18.679Z,0
2016-10-09T04:12:18.967Z,0
2016-10-09T04:13:18.609Z,0
2016-10-09T04:14:18.586Z,0
2016-10-09T04:15:18.838Z,0
2016-10-09T04:16:18.796Z,0
2016-10-09T04:17:18.457Z,0
2016-10-09T04:18:18.411Z,0
2016-10-09T04:19:18.376Z,0
2016-10-09T04:20:18.038Z,0
2016-10-09T04:21:18.597Z,0
2016-10-09T04:22:18.257Z,0
2016-10-09T04:23:18.527Z,0
2016-10-09T04:24:18.504Z,0
2016-10-09T04:25:18.143Z,0
2016-10-09T04:26:18.105Z,0
2016-10-09T04:27:18.366Z,0
2016-10-09T04:28:18.350Z,0
2016-10-09T04:29:18.006Z,0
2016-10-09T04:30:18.248Z,0
2016-10-09T04:31:17.607Z,0
2016-10-09T04:32:18.175Z,0
2016-10-09T04:33:17.826Z,0
2016-10-09T04:34:18.097Z,0
2016-10-09T04:35:17.752Z,0
2016-10-09T04:36:17.418Z,0
2016-10-09T04:37:17.671Z,0
2016-10-09T04:38:17.939Z,0
2016-10-09T04:39:17.631Z,0
2016-10-09T04:40:17.859Z,0
2016-10-09T04:41:17.827Z,0
2016-10-09T04:42:17.781Z,0
2016-10-09T04:43:17.439Z,0
2016-10-09T04:44:17.708Z,0
2016-10-09T04:45:17.677Z,0
2016-10-09T04:46:17.639Z,0
2016-10-09T04:47:17.597Z,0
2016-10-09T04:48:17.248Z,0
2016-10-09T04:49:17.512Z,0
2016-10-09T04:50:17.168Z,0
2016-10-09T04:51:17.437Z,0
2016-10-09T04:52:17.402Z,0
2016-10-09T04:53:17.054Z,0
2016-10-09T04:54:17.319Z,0
2016-10-09T04:55:17.277Z,0
2016-10-09T04:56:17.236Z,0
2016-10-09T04:57:17.202Z,0
2016-10-09T04:58:17.168Z,0
2016-10-09T04:59:17.119Z,0
2016-10-09T05:00:16.781Z,0
2016-10-09T05:01:16.750Z,0
2016-10-09T05:02:17.007Z,0
2016-10-09T05:03:16.960Z,0
2016-10-09T05:04:16.924Z,0
2016-10-09T05:05:16.288Z,0
2016-10-09T05:06:16.848Z,0
2016-10-09T05:07:16.812Z,0
2016-10-09T05:08:16.474Z,0
2016-10-09T05:09:16.427Z,0
2016-10-09T05:10:16.393Z,0
2016-10-09T05:11:16.353Z,0
2016-10-09T05:12:16.614Z,0
2016-10-09T05:13:16.579Z,0
2016-10-09T05:14:16.532Z,0
2016-10-09T05:15:16.503Z,0
2016-10-09T05:16:16.157Z,0
2016-10-09T05:17:16.427Z,0
2016-10-09T05:18:16.400Z,0
2016-10-09T05:19:16.047Z,0
2016-10-09T05:20:16.010Z,0
2016-10-09T05:21:15.969Z,0
2016-10-09T05:22:15.929Z,0
2016-10-09T05:23:15.908Z,0
2016-10-09T05:24:15.851Z,0
2016-10-09T05:25:16.112Z,0
2016-10-09T05:26:16.068Z,5
2016-10-09T05:27:16.036Z,5
2016-10-09T05:28:15.690Z,5
2016-10-09T05:29:15.972Z,5
2016-10-09T05:30:15.608Z,5
2016-10-09T05:31:15.885Z,5
2016-10-09T05:32:15.540Z,5
2016-10-09T05:33:15.803Z,5
2016-10-09T05:34:15.761Z,5
2016-10-09T05:35:15.422Z,5
2016-10-09T05:36:15.676Z,10
2016-10-09T05:37:15.654Z,10
2016-10-09T05:38:15.300Z,10
2016-10-09T05:39:15.265Z,10
2016-10-09T05:40:15.526Z,10
2016-10-09T05:41:15.490Z,10
2016-10-09T05:42:15.458Z,10
2016-10-09T05:43:15.412Z,10
2016-10-09T05:44:15.388Z,15
2016-10-09T05:45:15.030Z,15
2016-10-09T05:46:14.995Z,15
2016-10-09T05:47:14.957Z,15
2016-10-09T05:48:15.220Z,15
2016-10-09T05:49:14.582Z,20
2016-10-09T05:50:15.146Z,20
2016-10-09T05:51:14.497Z,25
2016-10-09T05:52:15.074Z,25
2016-10-09T05:53:14.717Z,30
2016-10-09T05:54:14.701Z,25
2016-10-09T05:55:14.956Z,25
2016-10-09T05:56:14.307Z,30
2016-10-09T05:57:14.865Z,30
2016-10-09T05:58:14.528Z,30
2016-10-09T05:59:14.790Z,30
2016-10-09T06:00:14.766Z,35
2016-10-09T06:01:14.436Z,35
2016-10-09T06:02:14.672Z,35
2016-10-09T06:03:14.334Z,40
2016-10-09T06:04:14.296Z,40
2016-10-09T06:05:14.267Z,40
2016-10-09T06:06:14.528Z,40
2016-10-09T06:07:14.187Z,45
2016-10-09T06:08:14.440Z,40
2016-10-09T06:09:14.405Z,40
2016-10-09T06:10:14.373Z,45
2016-10-09T06:11:13.728Z,45
2016-10-09T06:12:13.994Z,50
2016-10-09T06:13:14.256Z,50
2016-10-09T06:14:14.222Z,50
2016-10-09T06:15:14.181Z,55
2016-10-09T06:16:14.130Z,55
2016-10-09T06:17:13.798Z,55
2016-10-09T06:18:14.055Z,65
2016-10-09T06:19:13.720Z,65
2016-10-09T06:20:13.980Z,65
2016-10-09T06:21:13.969Z,60
2016-10-09T06:22:13.906Z,60
2016-10-09T06:23:13.568Z,60
2016-10-09T06:24:13.226Z,60
2016-10-09T06:25:13.800Z,60
2016-10-09T06:26:13.451Z,60
2016-10-09T06:27:13.412Z,55
2016-10-09T06:28:13.677Z,55
2016-10-09T06:29:13.343Z,55
2016-10-09T06:30:13.298Z,60
2016-10-09T06:31:13.263Z,60
2016-10-09T06:32:12.627Z,55
2016-10-09T06:33:13.190Z,55
2016-10-09T06:34:12.849Z,55
2016-10-09T06:35:13.123Z,60
2016-10-09T06:36:13.077Z,60
2016-10-09T06:37:13.044Z,60
2016-10-09T06:38:12.997Z,60
2016-10-09T06:39:12.970Z,65
2016-10-09T06:40:12.333Z,65
2016-10-09T06:41:13.190Z,65
2016-10-09T06:42:13.150Z,70
2016-10-09T06:43:13.136Z,70
2016-10-09T06:44:12.773Z,75
2016-10-09T06:45:13.033Z,75
2016-10-09T06:46:12.694Z,75
2016-10-09T06:47:12.662Z,75
2016-10-09T06:48:12.322Z,75
2016-10-09T06:49:12.891Z,75
2016-10-09T06:50:12.559Z,80
2016-10-09T06:51:12.509Z,80
2016-10-09T06:52:12.471Z,80
2016-10-09T06:53:12.742Z,80
2016-10-09T06:54:12.714Z,80
2016-10-09T06:55:12.664Z,85
2016-10-09T06:56:12.621Z,90
2016-10-09T06:57:12.590Z,95
2016-10-09T06:58:12.550Z,100
2016-10-09T06:59:11.907Z,105
2016-10-09T07:00:12.170Z,105
2016-10-09T07:01:12.133Z,105
2016-10-09T07:02:12.110Z,105
2016-10-09T07:03:11.779Z,100
2016-10-09T07:04:12.021Z,100
2016-10-09T07:05:12.288Z,100
2016-10-09T07:06:12.250Z,110
2016-10-09T07:07:11.904Z,115
2016-10-09T07:08:12.177Z,125
2016-10-09T07:09:12.142Z,150
2016-10-09T07:10:12.093Z,155
2016-10-09T07:11:12.059Z,120
2016-10-09T07:12:11.723Z,120
2016-10-09T07:13:11.993Z,125
2016-10-09T07:14:11.952Z,135
2016-10-09T07:15:11.914Z,155
2016-10-09T07:16:11.883Z,160
2016-10-09T07:17:11.533Z,155
2016-10-09T07:18:11.801Z,155
2016-10-09T07:19:11.760Z,145
2016-10-09T07:20:11.121Z,145
2016-10-09T07:21:11.383Z,150
2016-10-09T07:22:11.350Z,155
2016-10-09T07:23:11.612Z,160
2016-10-09T07:24:11.582Z,165
2016-10-09T07:25:11.530Z,165
2016-10-09T07:26:11.541Z,170
2016-10-09T07:27:10.861Z,175
2016-10-09T07:28:11.422Z,185
2016-10-09T07:29:11.395Z,195
2016-10-09T07:30:11.360Z,205
2016-10-09T07:31:11.328Z,210
2016-10-09T07:32:10.975Z,210
2016-10-09T07:33:10.643Z,215
2016-10-09T07:34:11.195Z,220
2016-10-09T07:35:11.179Z,225
2016-10-09T07:36:11.125Z,235
2016-10-09T07:37:11.089Z,240
2016-10-09T07:38:11.054Z,250
2016-10-09T07:39:11.015Z,255
2016-10-09T07:40:10.376Z,270
2016-10-09T07:41:10.952Z,280
2016-10-09T07:42:10.607Z,290
2016-10-09T07:43:10.569Z,305
2016-10-09T07:44:10.833Z,310
2016-10-09T07:45:10.803Z,310
2016-10-09T07:46:10.158Z,310
2016-10-09T07:47:10.436Z,310
2016-10-09T07:48:10.707Z,315
2016-10-09T07:49:10.344Z,320
2016-10-09T07:50:10.316Z,330
2016-10-09T07:51:10.574Z,330
2016-10-09T07:52:10.235Z,330
2016-10-09T07:53:10.200Z,325
2016-10-09T07:54:10.179Z,330
2016-10-09T07:55:09.524Z,345
2016-10-09T07:56:10.091Z,365
2016-10-09T07:57:10.056Z,380
2016-10-09T07:58:10.325Z,400
2016-10-09T07:59:10.286Z,395
2016-10-09T08:00:09.968Z,380
2016-10-09T08:01:09.614Z,365
2016-10-09T08:02:09.880Z,350
2016-10-09T08:03:09.840Z,340
2016-10-09T08:04:09.520Z,345
2016-10-09T08:05:09.778Z,345
2016-10-09T08:06:09.732Z,345
2016-10-09T08:07:09.691Z,340
2016-10-09T08:08:09.361Z,340
2016-10-09T08:09:09.923Z,335
2016-10-09T08:10:09.593Z,365
2016-10-09T08:11:09.869Z,395
2016-10-09T08:12:09.823Z,380
2016-10-09T08:13:09.784Z,405
2016-10-09T08:14:09.752Z,435
2016-10-09T08:15:09.715Z,465
2016-10-09T08:16:09.685Z,485
2016-10-09T08:17:09.656Z,515
2016-10-09T08:18:09.316Z,525
2016-10-09T08:19:09.576Z,525
2016-10-09T08:20:09.257Z,545
2016-10-09T08:21:09.203Z,510
2016-10-09T08:22:09.174Z,495
2016-10-09T08:23:08.832Z,500
2016-10-09T08:24:09.108Z,505
2016-10-09T08:25:09.066Z,520
2016-10-09T08:26:08.729Z,575
2016-10-09T08:27:08.994Z,560
2016-10-09T08:28:09.262Z,565
2016-10-09T08:29:09.242Z,575
2016-10-09T08:30:08.585Z,650
2016-10-09T08:31:08.855Z,610
2016-10-09T08:32:08.522Z,630
2016-10-09T08:33:08.788Z,610
2016-10-09T08:34:08.753Z,615
2016-10-09T08:35:08.724Z,630
2016-10-09T08:36:08.380Z,665
2016-10-09T08:37:08.667Z,630
2016-10-09T08:38:08.924Z,670
2016-10-09T08:39:08.889Z,635
2016-10-09T08:40:08.551Z,625
2016-10-09T08:41:08.521Z,635
2016-10-09T08:42:08.489Z,635
2016-10-09T08:43:08.449Z,645
2016-10-09T08:44:08.725Z,655
2016-10-09T08:45:08.698Z,660
2016-10-09T08:46:08.655Z,680
2016-10-09T08:47:08.667Z,690
2016-10-09T08:48:08.585Z,705
2016-10-09T08:49:08.559Z,720
2016-10-09T08:50:08.223Z,705
2016-10-09T08:51:08.640Z,710
2016-10-09T08:52:08.461Z,710
2016-10-09T08:53:08.122Z,710
2016-10-09T08:54:08.396Z,720
2016-10-09T08:55:08.370Z,705
2016-10-09T08:56:07.725Z,690
2016-10-09T08:57:08.308Z,680
2016-10-09T08:58:08.270Z,665
2016-10-09T08:59:08.234Z,660
2016-10-09T09:00:07.907Z,635
2016-10-09T09:01:07.884Z,625
2016-10-09T09:02:07.848Z,695
2016-10-09T09:03:08.106Z,670
2016-10-09T09:04:07.769Z,640
2016-10-09T09:05:07.741Z,615
2016-10-09T09:06:07.707Z,605
2016-10-09T09:07:07.974Z,570
2016-10-09T09:08:07.943Z,550
2016-10-09T09:09:07.915Z,545
2016-10-09T09:10:07.880Z,545
2016-10-09T09:11:07.898Z,580
2016-10-09T09:12:07.523Z,545
2016-10-09T09:13:07.795Z,535
2016-10-09T09:14:07.154Z,535
2016-10-09T09:15:07.727Z,525
2016-10-09T09:16:07.387Z,530
2016-10-09T09:17:07.414Z,535
2016-10-09T09:18:07.324Z,535
2016-10-09T09:19:07.312Z,530
2016-10-09T09:20:06.962Z,525
2016-10-09T09:21:07.234Z,505
2016-10-09T09:22:07.494Z,490
2016-10-09T09:23:06.859Z,480
2016-10-09T09:24:07.450Z,465
2016-10-09T09:25:07.098Z,455
2016-10-09T09:26:07.068Z,445
2016-10-09T09:27:06.736Z,435
2016-10-09T09:28:06.395Z,440
2016-10-09T09:29:07.276Z,440
2016-10-09T09:30:06.949Z,440
2016-10-09T09:31:07.205Z,410
2016-10-09T09:32:06.893Z,385
2016-10-09T09:33:06.849Z,370
2016-10-09T09:34:06.206Z,375
2016-10-09T09:35:07.078Z,395
2016-10-09T09:36:06.740Z,405
2016-10-09T09:37:06.118Z,400
2016-10-09T09:38:06.380Z,395
2016-10-09T09:39:06.652Z,380
2016-10-09T09:40:06.919Z,375
2016-10-09T09:41:06.881Z,375
2016-10-09T09:42:06.553Z,380
2016-10-09T09:43:06.519Z,385
2016-10-09T09:44:06.481Z,385
2016-10-09T09:45:06.756Z,385
2016-10-09T09:46:06.723Z,385
2016-10-09T09:47:06.385Z,385
2016-10-09T09:48:06.348Z,385
2016-10-09T09:49:06.622Z,385
2016-10-09T09:50:06.286Z,385
2016-10-09T09:51:06.569Z,390
2016-10-09T09:52:06.518Z,395
2016-10-09T09:53:05.896Z,395
2016-10-09T09:54:06.451Z,400
2016-10-09T09:55:05.812Z,405
2016-10-09T09:56:06.085Z,400
2016-10-09T09:57:06.052Z,385
2016-10-09T09:58:06.020Z,365
2016-10-09T09:59:06.308Z,360
2016-10-09T10:00:06.256Z,360
2016-10-09T10:01:05.922Z,365
2016-10-09T10:02:05.881Z,370
2016-10-09T10:03:05.853Z,380
2016-10-09T10:04:05.817Z,385
2016-10-09T10:05:06.079Z,385
2016-10-09T10:06:06.051Z,370
2016-10-09T10:07:06.028Z,355
2016-10-09T10:08:05.423Z,340
2016-10-09T10:09:05.951Z,320
2016-10-09T10:10:05.621Z,310
2016-10-09T10:11:05.594Z,300
2016-10-09T10:12:05.551Z,295
2016-10-09T10:13:05.873Z,290
2016-10-09T10:14:05.484Z,290
2016-10-09T10:15:05.476Z,295
2016-10-09T10:16:05.423Z,305
2016-10-09T10:17:05.690Z,330
2016-10-09T10:18:05.353Z,345
2016-10-09T10:19:05.624Z,365
2016-10-09T10:20:05.587Z,375
2016-10-09T10:21:04.962Z,380
2016-10-09T10:22:05.227Z,375
2016-10-09T10:23:05.488Z,385
2016-10-09T10:24:05.148Z,375
2016-10-09T10:25:05.117Z,375
2016-10-09T10:26:05.093Z,380
2016-10-09T10:27:04.753Z,380
2016-10-09T10:28:05.022Z,385
2016-10-09T10:29:05.283Z,390
2016-10-09T10:30:04.945Z,390
2016-10-09T10:31:04.931Z,375
2016-10-09T10:32:05.191Z,365
2016-10-09T10:33:04.855Z,360
2016-10-09T10:34:04.509Z,365
2016-10-09T10:35:04.790Z,355
2016-10-09T10:36:05.055Z,360
2016-10-09T10:37:05.018Z,355
2016-10-09T10:38:04.984Z,360
2016-10-09T10:39:04.962Z,360
2016-10-09T10:40:04.915Z,350
2016-10-09T10:41:04.890Z,335
2016-10-09T10:42:04.560Z,325
2016-10-09T10:43:03.653Z,310
2016-10-09T10:44:04.486Z,310
2016-10-09T10:45:04.154Z,315
2016-10-09T10:46:04.716Z,320
2016-10-09T10:47:04.382Z,320
2016-10-09T10:48:04.647Z,315
2016-10-09T10:49:04.624Z,305
2016-10-09T10:50:04.588Z,295
2016-10-09T10:51:04.552Z,295
2016-10-09T10:52:04.527Z,305
2016-10-09T10:53:03.607Z,325
2016-10-09T10:54:04.461Z,345
2016-10-09T10:55:04.128Z,355
2016-10-09T10:56:03.783Z,375
2016-10-09T10:57:03.749Z,390
2016-10-09T10:58:04.325Z,395
2016-10-09T10:59:03.986Z,395
2016-10-09T11:00:04.260Z,390
2016-10-09T11:01:03.326Z,380
2016-10-09T11:02:03.890Z,370
2016-10-09T11:03:03.847Z,375
2016-10-09T11:04:04.141Z,365
2016-10-09T11:05:03.799Z,370
2016-10-09T11:06:03.798Z,370
2016-10-09T11:07:04.028Z,370
2016-10-09T11:08:03.394Z,370
2016-10-09T11:09:03.657Z,385
2016-10-09T11:10:03.927Z,400
2016-10-09T11:11:03.594Z,415
2016-10-09T11:12:03.563Z,435
2016-10-09T11:13:03.534Z,440
2016-10-09T11:14:03.796Z,440
2016-10-09T11:15:03.162Z,445
2016-10-09T11:16:03.427Z,455
2016-10-09T11:17:03.405Z,450
2016-10-09T11:18:03.661Z,440
2016-10-09T11:19:03.329Z,435
2016-10-09T11:20:03.356Z,415
2016-10-09T11:21:03.567Z,410
2016-10-09T11:22:03.543Z,415
2016-10-09T11:23:02.894Z,425
2016-10-09T11:24:03.169Z,435
2016-10-09T11:25:03.438Z,445
2016-10-09T11:26:02.816Z,445
2016-10-09T11:27:03.375Z,455
2016-10-09T11:28:03.348Z,455
2016-10-09T11:29:03.004Z,460
2016-10-09T11:30:02.991Z,455
2016-10-09T11:31:03.261Z,460
2016-10-09T11:32:02.925Z,470
2016-10-09T11:33:03.186Z,475
2016-10-09T11:34:03.168Z,470
2016-10-09T11:35:03.162Z,470
2016-10-09T11:36:02.823Z,470
2016-10-09T11:37:02.745Z,470
2016-10-09T11:38:02.719Z,480
2016-10-09T11:39:02.688Z,470
2016-10-09T11:40:02.361Z,470
2016-10-09T11:41:02.624Z,460
2016-10-09T11:42:02.592Z,440
2016-10-09T11:43:02.567Z,425
2016-10-09T11:44:02.535Z,410
2016-10-09T11:45:02.504Z,415
2016-10-09T11:46:02.473Z,430
2016-10-09T11:47:02.741Z,420
2016-10-09T11:48:02.728Z,425
2016-10-09T11:49:02.681Z,440
2016-10-09T11:50:02.038Z,420
2016-10-09T11:51:02.617Z,390
2016-10-09T11:52:02.294Z,360
2016-10-09T11:53:02.247Z,350
2016-10-09T11:54:02.212Z,335
2016-10-09T11:55:02.186Z,345
2016-10-09T11:56:01.849Z,355
2016-10-09T11:57:02.428Z,350
2016-10-09T11:58:02.392Z,345
2016-10-09T11:59:02.060Z,340
2016-10-09T12:00:01.420Z,345
2016-10-09T12:01:01.991Z,345
2016-10-09T12:02:02.268Z,355
2016-10-09T12:03:02.246Z,375
2016-10-09T12:04:02.204Z,385
2016-10-09T12:05:02.185Z,390
2016-10-09T12:06:01.224Z,385
2016-10-09T12:07:01.808Z,375
2016-10-09T12:08:01.769Z,350
2016-10-09T12:09:01.747Z,325
2016-10-09T12:10:01.104Z,310
2016-10-09T12:11:01.681Z,320
2016-10-09T12:12:01.946Z,340
2016-10-09T12:13:01.936Z,350
2016-10-09T12:14:01.881Z,350
2016-10-09T12:15:01.866Z,355
2016-10-09T12:16:01.817Z,350
2016-10-09T12:17:01.185Z,320
2016-10-09T12:18:01.157Z,295
2016-10-09T12:19:01.441Z,285
2016-10-09T12:20:01.704Z,280
2016-10-09T12:21:01.376Z,280
2016-10-09T12:22:01.326Z,285
2016-10-09T12:23:01.301Z,285
2016-10-09T12:24:01.563Z,260
2016-10-09T12:25:01.538Z,240
2016-10-09T12:26:01.195Z,230
2016-10-09T12:27:01.165Z,225
2016-10-09T12:28:01.139Z,225
2016-10-09T12:29:01.117Z,220
2016-10-09T12:30:01.068Z,220
2016-10-09T12:31:01.045Z,215
2016-10-09T12:32:01.009Z,220
2016-10-09T12:33:00.983Z,220
2016-10-09T12:34:00.938Z,225
2016-10-09T12:35:01.210Z,235
2016-10-09T12:36:00.895Z,240
2016-10-09T12:37:01.161Z,255
2016-10-09T12:38:00.509Z,265
2016-10-09T12:39:00.780Z,270
2016-10-09T12:40:00.744Z,270
2016-10-09T12:41:00.720Z,275
2016-10-09T12:41:59.779Z,285
2016-10-09T12:43:00.966Z,275
2016-10-09T12:44:00.915Z,250
2016-10-09T12:45:00.897Z,240
2016-10-09T12:46:00.857Z,230
2016-10-09T12:47:00.225Z,225
2016-10-09T12:48:00.825Z,215
2016-10-09T12:49:00.818Z,205
2016-10-09T12:50:00.122Z,210
2016-10-09T12:51:00.702Z,220
2016-10-09T12:52:00.651Z,240
2016-10-09T12:53:00.641Z,260
2016-10-09T12:53:59.979Z,280
2016-10-09T12:55:00.573Z,270
2016-10-09T12:56:00.226Z,250
2016-10-09T12:57:00.492Z,250
2016-10-09T12:58:00.156Z,240
2016-10-09T12:59:00.130Z,235
2016-10-09T13:00:00.085Z,235
2016-10-09T13:01:00.056Z,220
2016-10-09T13:02:00.019Z,220
2016-10-09T13:02:59.994Z,215
2016-10-09T13:04:00.258Z,215
2016-10-09T13:04:59.921Z,205
2016-10-09T13:05:59.890Z,200
2016-10-09T13:06:59.861Z,195
2016-10-09T13:07:59.814Z,190
2016-10-09T13:08:59.787Z,190
2016-10-09T13:09:59.745Z,190
2016-10-09T13:10:59.721Z,190
2016-10-09T13:11:59.678Z,195
2016-10-09T13:12:59.962Z,195
2016-10-09T13:13:59.619Z,190
2016-10-09T13:14:59.635Z,185
2016-10-09T13:15:59.849Z,180
2016-10-09T13:16:59.818Z,175
2016-10-09T13:17:59.474Z,170
2016-10-09T13:18:59.145Z,175
2016-10-09T13:19:59.106Z,175
2016-10-09T13:20:59.397Z,180
2016-10-09T13:21:59.647Z,185
2016-10-09T13:22:59.622Z,180
2016-10-09T13:23:59.571Z,175
2016-10-09T13:24:59.547Z,175
2016-10-09T13:25:59.209Z,175
2016-10-09T13:26:59.178Z,180
2016-10-09T13:27:59.445Z,190
2016-10-09T13:28:59.105Z,195
2016-10-09T13:29:59.380Z,195
2016-10-09T13:30:58.740Z,195
2016-10-09T13:31:58.402Z,200
2016-10-09T13:32:59.268Z,195
2016-10-09T13:33:58.932Z,190
2016-10-09T13:34:58.622Z,185
2016-10-09T13:35:59.170Z,180
2016-10-09T13:36:58.851Z,180
2016-10-09T13:37:59.102Z,180
2016-10-09T13:38:59.127Z,180
2016-10-09T13:39:59.034Z,185
2016-10-09T13:40:59.012Z,185
2016-10-09T13:41:57.757Z,180
2016-10-09T13:42:58.323Z,180
2016-10-09T13:43:58.599Z,180
2016-10-09T13:44:58.559Z,180
2016-10-09T13:45:58.825Z,175
2016-10-09T13:46:58.792Z,175
2016-10-09T13:47:58.156Z,170
2016-10-09T13:48:58.725Z,170
2016-10-09T13:49:58.381Z,170
2016-10-09T13:50:58.362Z,175
2016-10-09T13:51:58.021Z,180
2016-10-09T13:52:58.588Z,180
2016-10-09T13:53:58.553Z,180
2016-10-09T13:54:58.222Z,165
2016-10-09T13:55:58.487Z,165
2016-10-09T13:56:58.448Z,165
2016-10-09T13:57:57.812Z,165
2016-10-09T13:58:58.090Z,165
2016-10-09T13:59:58.045Z,170
2016-10-09T14:00:58.310Z,175
2016-10-09T14:01:57.978Z,180
2016-10-09T14:02:58.233Z,185
2016-10-09T14:03:58.212Z,185
2016-10-09T14:04:57.890Z,185
2016-10-09T14:05:58.151Z,185
2016-10-09T14:06:58.118Z,180
2016-10-09T14:07:57.774Z,180
2016-10-09T14:08:58.038Z,180
2016-10-09T14:09:57.697Z,190
2016-10-09T14:10:57.966Z,195
2016-10-09T14:11:57.632Z,205